createdAt,value
2024-02-23T00:03:02.812Z,95825.52
2024-02-23T00:06:37.873Z,95826.23
2024-02-23T00:10:06.830Z,95819.08
2024-02-23T00:13:53.927Z,95815.83
2024-02-23T00:17:41.206Z,95813.89
2024-02-23T00:21:28.102Z,95818.52
2024-02-23T00:25:14.937Z,95822.34
2024-02-23T00:28:43.355Z,95817.48
2024-02-23T00:32:14.968Z,95813.31
2024-02-23T00:35:22.831Z,95816.39
2024-02-23T00:38:29.895Z,95816.75
2024-02-23T00:42:16.680Z,95821.17
2024-02-23T00:45:28.983Z,95815.70
2024-02-23T00:48:36.408Z,95804.67
2024-02-23T00:52:23.179Z,95804.27
2024-02-23T00:55:51.578Z,95802.54
2024-02-23T00:59:22.969Z,95802.20
2024-02-23T01:03:09.695Z,95800.41
2024-02-23T01:06:38.176Z,95793.97
2024-02-23T01:10:07.228Z,95795.45
2024-02-23T01:13:34.262Z,95792.38
2024-02-23T01:17:05.545Z,95791.06
2024-02-23T01:20:41.400Z,95794.52
2024-02-23T01:24:12.586Z,95797.23
2024-02-23T01:27:21.364Z,95791.55
2024-02-23T01:30:35.068Z,95795.11
2024-02-23T01:34:03.728Z,95801.14
2024-02-23T01:37:30.783Z,95801.65
2024-02-23T01:40:59.001Z,95804.13
2024-02-23T01:44:42.079Z,95805.39
2024-02-23T01:48:09.256Z,95809.75
2024-02-23T01:51:56.154Z,95802.73
2024-02-23T01:55:16.657Z,95800.52
2024-02-23T01:59:03.381Z,95801.39
2024-02-23T02:04:29.395Z,95798.98
2024-02-23T02:07:03.853Z,95794.05
2024-02-23T02:09:58.086Z,95791.98
2024-02-23T02:13:01.500Z,95790.70
2024-02-23T02:15:51.435Z,95788.05
2024-02-23T02:18:24.612Z,95784.05
2024-02-23T02:21:17.979Z,95785.42
2024-02-23T02:23:49.480Z,95783.73
2024-02-23T02:26:56.695Z,95782.04
2024-02-23T02:29:46.002Z,95775.83
2024-02-23T02:32:36.769Z,95776.04
2024-02-23T02:35:27.442Z,95775.10
2024-02-23T02:38:21.133Z,95774.32
2024-02-23T02:41:12.138Z,95773.02
2024-02-23T02:44:39.248Z,95773.55
2024-02-23T02:47:47.291Z,95772.51
2024-02-23T02:51:15.230Z,95784.53
2024-02-23T02:54:02.751Z,95788.35
2024-02-23T02:57:11.102Z,95792.84
2024-02-23T03:00:18.046Z,95796.70
2024-02-23T03:03:01.864Z,95801.81
2024-02-23T03:05:31.280Z,95805.09
2024-02-23T03:08:03.629Z,95808.17
2024-02-23T03:10:37.658Z,95811.27
2024-02-23T03:13:12.941Z,95813.86
2024-02-23T03:15:41.702Z,95815.27
2024-02-23T03:18:16.305Z,95821.08
2024-02-23T03:20:46.023Z,95818.00
2024-02-23T03:23:14.155Z,95819.62
2024-02-23T03:25:41.963Z,95818.10
2024-02-23T03:28:10.189Z,95818.12
2024-02-23T03:30:38.624Z,95815.06
2024-02-23T03:33:06.620Z,95819.33
2024-02-23T03:35:34.313Z,95818.46
2024-02-23T03:38:04.183Z,95827.30
2024-02-23T03:40:31.559Z,95831.84
2024-02-23T03:42:59.205Z,95835.86
2024-02-23T03:45:48.549Z,95835.56
2024-02-23T03:48:16.252Z,95840.83
2024-02-23T03:50:43.782Z,95840.02
2024-02-23T03:53:13.394Z,95844.71
2024-02-23T03:55:40.746Z,95845.02
2024-02-23T03:58:08.926Z,95849.05
2024-02-23T04:00:36.372Z,95852.96
2024-02-23T04:03:03.814Z,95856.61
2024-02-23T04:05:31.496Z,95862.44
2024-02-23T04:07:59.148Z,95861.95
2024-02-23T04:10:26.519Z,95862.96
2024-02-23T04:12:53.830Z,95862.91
2024-02-23T04:15:21.188Z,95863.63
2024-02-23T04:17:48.501Z,95861.59
2024-02-23T04:20:15.703Z,95862.69
2024-02-23T04:22:43.024Z,95868.22
2024-02-23T04:25:10.261Z,95865.36
2024-02-23T04:27:37.502Z,95873.48
2024-02-23T04:30:06.578Z,95877.34
2024-02-23T04:32:34.010Z,95880.89
2024-02-23T04:35:01.412Z,95885.88
2024-02-23T04:37:28.707Z,95887.27
2024-02-23T04:39:55.997Z,95882.06
2024-02-23T04:42:23.418Z,95882.41
2024-02-23T04:44:51.049Z,95885.30
2024-02-23T04:47:18.318Z,95886.01
2024-02-23T04:49:45.743Z,95890.02
2024-02-23T04:52:13.368Z,95888.55
2024-02-23T04:54:40.695Z,95892.30
2024-02-23T04:57:08.236Z,95898.95
2024-02-23T04:59:35.855Z,95900.80
2024-02-23T05:02:03.224Z,95898.13
2024-02-23T05:04:30.472Z,95903.10
2024-02-23T05:06:57.849Z,95906.33
2024-02-23T05:09:25.159Z,95908.45
2024-02-23T05:11:52.712Z,95907.09
2024-02-23T05:14:20.553Z,95907.57
2024-02-23T05:16:48.009Z,95914.02
2024-02-23T05:19:15.479Z,95918.38
2024-02-23T05:21:42.781Z,95921.60
2024-02-23T05:24:10.151Z,95924.86
2024-02-23T05:26:37.592Z,95926.67
2024-02-23T05:29:05.415Z,95928.96
2024-02-23T05:31:59.031Z,95934.60
2024-02-23T05:34:26.322Z,95935.39
2024-02-23T05:36:53.606Z,95940.54
2024-02-23T05:39:21.006Z,95944.37
2024-02-23T05:41:48.995Z,95944.52
2024-02-23T05:44:16.321Z,95948.65
2024-02-23T05:46:45.401Z,95944.56
2024-02-23T05:49:14.228Z,95948.80
2024-02-23T05:51:41.826Z,95953.01
2024-02-23T05:54:10.486Z,95959.23
2024-02-23T05:56:38.989Z,95962.27
2024-02-23T05:59:06.606Z,95964.50
2024-02-23T06:01:34.045Z,95969.30
2024-02-23T06:04:01.390Z,95970.66
2024-02-23T06:06:28.782Z,95974.04
2024-02-23T06:08:56.312Z,95979.04
2024-02-23T06:11:23.764Z,95982.66
2024-02-23T06:13:51.106Z,95987.58
2024-02-23T06:16:18.386Z,95990.63
2024-02-23T06:18:45.901Z,95992.97
2024-02-23T06:21:22.206Z,95995.91
2024-02-23T06:23:49.210Z,96002.25
2024-02-23T06:26:16.293Z,96007.52
2024-02-23T06:28:43.781Z,96009.62
2024-02-23T06:31:11.871Z,96014.58
2024-02-23T06:33:39.428Z,96021.78
2024-02-23T06:36:07.485Z,96026.09
2024-02-23T06:38:35.187Z,96026.24
2024-02-23T06:41:02.646Z,96028.75
2024-02-23T06:43:30.889Z,96032.06
2024-02-23T06:45:58.421Z,96033.42
2024-02-23T06:48:29.190Z,96034.27
2024-02-23T06:50:59.145Z,96030.27
2024-02-23T06:53:30.125Z,96034.95
2024-02-23T06:55:57.545Z,96037.63
2024-02-23T06:58:27.430Z,96040.65
2024-02-23T07:00:55.179Z,96047.59
2024-02-23T07:03:22.343Z,96054.01
2024-02-23T07:05:51.822Z,96063.44
2024-02-23T07:08:20.228Z,96074.16
2024-02-23T07:10:47.596Z,96081.87
2024-02-23T07:13:15.018Z,96086.48
2024-02-23T07:15:42.172Z,96086.35
2024-02-23T07:18:10.566Z,96084.94
2024-02-23T07:20:39.127Z,96087.52
2024-02-23T07:23:14.852Z,96091.07
2024-02-23T07:25:43.248Z,96092.92
2024-02-23T07:28:12.595Z,96095.31
2024-02-23T07:30:40.786Z,96093.08
2024-02-23T07:33:09.094Z,96098.19
2024-02-23T07:35:39.609Z,96094.25
2024-02-23T07:38:10.415Z,96093.85
2024-02-23T07:40:39.219Z,96097.48
2024-02-23T07:43:10.669Z,96096.55
2024-02-23T07:45:39.566Z,96101.98
2024-02-23T07:48:10.610Z,96101.92
2024-02-23T07:50:37.973Z,96108.96
2024-02-23T07:53:06.542Z,96105.16
2024-02-23T07:55:35.124Z,96107.54
2024-02-23T07:59:03.865Z,96110.52
2024-02-23T08:02:54.029Z,96110.70
2024-02-23T08:06:42.055Z,96114.17
2024-02-23T08:10:30.100Z,96115.29
2024-02-23T08:14:19.991Z,96117.23
2024-02-23T08:18:07.662Z,96117.94
2024-02-23T08:21:55.695Z,96122.92
2024-02-23T08:25:44.858Z,96126.37
2024-02-23T08:33:18.474Z,96129.73
2024-02-23T08:37:06.658Z,96136.23
2024-02-23T08:40:54.992Z,96135.68
2024-02-23T08:44:42.864Z,96132.54
2024-02-23T08:48:30.971Z,96141.98
2024-02-23T08:52:08.852Z,96146.35
2024-02-23T08:55:38.712Z,96141.77
2024-02-23T08:59:07.386Z,96143.54
2024-02-23T09:02:34.941Z,96151.11
2024-02-23T09:06:04.230Z,96154.35
2024-02-23T09:09:12.658Z,96154.74
2024-02-23T09:12:42.999Z,96153.93
2024-02-23T09:16:30.966Z,96159.07
2024-02-23T09:20:18.470Z,96163.09
2024-02-23T09:24:06.423Z,96159.10
2024-02-23T09:31:38.724Z,96162.11
2024-02-23T09:38:19.693Z,96163.42
2024-02-23T09:41:32.781Z,96169.23
2024-02-23T09:44:45.309Z,96176.60
2024-02-23T09:48:12.913Z,96184.87
2024-02-23T09:51:40.377Z,96194.90
2024-02-23T09:54:36.015Z,96196.62
2024-02-23T09:57:49.127Z,96201.13
2024-02-23T10:01:34.645Z,96214.14
2024-02-23T10:05:01.827Z,96218.37
2024-02-23T10:08:50.697Z,96225.33
2024-02-23T10:12:18.489Z,96237.90
2024-02-23T10:14:58.647Z,96242.46
2024-02-23T10:17:31.660Z,96239.66
2024-02-23T10:20:42.980Z,96235.68
2024-02-23T10:23:17.355Z,96231.30
2024-02-23T10:26:09.843Z,96230.24
2024-02-23T10:28:58.868Z,96235.16
2024-02-23T10:31:54.524Z,96242.28
2024-02-23T10:34:48.245Z,96239.48
2024-02-23T10:37:58.339Z,96234.79
2024-02-23T10:41:26.911Z,96235.72
2024-02-23T10:44:57.499Z,96229.23
2024-02-23T10:48:17.382Z,96222.43
2024-02-23T10:51:44.580Z,96218.52
2024-02-23T10:54:57.272Z,96223.23
2024-02-23T10:58:44.156Z,96223.15
2024-02-23T11:02:32.252Z,96229.23
2024-02-23T11:06:02.440Z,96234.98
2024-02-23T11:09:49.159Z,96231.45
2024-02-23T11:12:56.455Z,96242.19
2024-02-23T11:16:32.239Z,96253.71
2024-02-23T11:19:58.149Z,96257.23
2024-02-23T11:23:25.707Z,96262.23
2024-02-23T11:26:53.298Z,96265.43
2024-02-23T11:30:05.517Z,96276.00
2024-02-23T11:33:19.770Z,96278.11
2024-02-23T11:36:49.742Z,96281.90
2024-02-23T11:40:36.689Z,96278.75
2024-02-23T11:43:45.187Z,96277.83
2024-02-23T11:47:32.340Z,96279.38
2024-02-23T11:50:59.533Z,96280.23
2024-02-23T11:54:26.526Z,96287.45
2024-02-23T11:57:56.596Z,96284.90
2024-02-23T12:01:29.037Z,96280.01
2024-02-23T12:04:40.429Z,96278.48
2024-02-23T12:07:36.428Z,96288.69
2024-02-23T12:11:01.019Z,96301.56
2024-02-23T12:13:48.757Z,96309.86
2024-02-23T12:16:47.917Z,96311.38
2024-02-23T12:19:43.960Z,96317.77
2024-02-23T12:22:39.563Z,96322.52
2024-02-23T12:25:47.088Z,96327.96
2024-02-23T12:28:54.129Z,96331.89
2024-02-23T12:32:21.078Z,96332.08
2024-02-23T12:35:09.055Z,96329.88
2024-02-23T12:38:19.913Z,96320.71
2024-02-23T12:41:09.348Z,96302.36
2024-02-23T12:44:18.682Z,96291.73
2024-02-23T12:47:11.954Z,96299.02
2024-02-23T12:50:02.845Z,96310.80
2024-02-23T12:52:56.229Z,96315.80
2024-02-23T12:55:30.851Z,96322.41
2024-02-23T12:58:27.637Z,96324.02
2024-02-23T13:01:35.785Z,96325.45
2024-02-23T13:04:46.339Z,96325.67
2024-02-23T13:07:34.675Z,96327.53
2024-02-23T13:11:01.673Z,96333.92
2024-02-23T13:14:31.810Z,96338.23
2024-02-23T13:17:21.613Z,96336.14
2024-02-23T13:20:30.358Z,96336.27
2024-02-23T13:23:54.209Z,96334.92
2024-02-23T13:26:54.014Z,96338.63
2024-02-23T13:29:28.740Z,96341.29
2024-02-23T13:32:19.977Z,96336.70
2024-02-23T13:35:07.905Z,96337.41
2024-02-23T13:38:17.127Z,96337.82
2024-02-23T13:41:26.221Z,96330.95
2024-02-23T13:43:58.885Z,96331.77
2024-02-23T13:47:09.932Z,96335.02
2024-02-23T13:49:39.285Z,96340.17
2024-02-23T13:55:22.804Z,96348.23
2024-02-23T13:58:50.010Z,96351.48
2024-02-23T14:02:37.600Z,96355.48
2024-02-23T14:06:24.565Z,96355.88
2024-02-23T14:10:12.868Z,96357.11
2024-02-23T14:14:01.833Z,96355.88
2024-02-23T14:17:48.921Z,96359.04
2024-02-23T14:21:35.862Z,96362.04
2024-02-23T14:25:22.839Z,96364.33
2024-02-23T14:29:09.834Z,96372.41
2024-02-23T14:32:56.732Z,96368.15
2024-02-23T14:36:43.631Z,96380.10
2024-02-23T14:40:30.385Z,96386.42
2024-02-23T14:44:18.449Z,96390.06
2024-02-23T14:48:11.487Z,96385.47
2024-02-23T14:51:54.141Z,96392.19
2024-02-23T14:55:21.532Z,96389.46
2024-02-23T15:05:32.374Z,96385.33
2024-02-23T15:09:19.094Z,96378.13
2024-02-23T15:12:49.623Z,96382.46
2024-02-23T15:16:17.802Z,96393.65
2024-02-23T15:20:04.768Z,96398.38
2024-02-23T15:23:51.829Z,96395.09
2024-02-23T15:27:38.875Z,96391.90
2024-02-23T15:31:08.813Z,96388.51
2024-02-23T15:34:55.903Z,96390.73
2024-02-23T15:38:23.101Z,96387.05
2024-02-23T15:41:51.038Z,96383.73
2024-02-23T15:44:58.040Z,96392.27
2024-02-23T15:48:05.193Z,96396.14
2024-02-23T15:51:42.107Z,96394.66
2024-02-23T15:55:09.026Z,96392.66
2024-02-23T15:58:21.779Z,96385.94
2024-02-23T16:01:50.920Z,96386.50
2024-02-23T16:05:14.632Z,96392.25
2024-02-23T16:08:46.219Z,96391.76
2024-02-23T16:12:13.417Z,96395.06
2024-02-23T16:16:00.337Z,96387.02
2024-02-23T16:19:47.349Z,96390.44
2024-02-23T16:22:55.976Z,96410.33
2024-02-23T16:26:23.010Z,96410.16
2024-02-23T16:30:09.841Z,96413.66
2024-02-23T16:33:18.503Z,96415.91
2024-02-23T16:36:46.139Z,96416.52
2024-02-23T16:40:17.366Z,96417.91
2024-02-23T16:43:57.842Z,96418.38
2024-02-23T16:47:09.528Z,96420.52
2024-02-23T16:49:36.777Z,96424.20
2024-02-23T16:53:03.747Z,96429.80
2024-02-23T16:55:43.875Z,96427.06
2024-02-23T16:58:11.707Z,96417.94
2024-02-23T17:00:48.367Z,96409.62
2024-02-23T17:03:57.242Z,96412.11
2024-02-23T17:07:26.171Z,96414.05
2024-02-23T17:11:02.324Z,96413.55
2024-02-23T17:14:12.145Z,96405.64
2024-02-23T17:16:50.484Z,96404.71
2024-02-23T17:19:58.206Z,96402.96
2024-02-23T17:22:26.432Z,96397.78
2024-02-23T17:24:56.095Z,96400.82
2024-02-23T17:27:40.410Z,96398.27
2024-02-23T17:30:08.983Z,96402.02
2024-02-23T17:32:36.142Z,96408.27
2024-02-23T17:35:04.832Z,96414.44
2024-02-23T17:37:32.099Z,96419.79
2024-02-23T17:39:59.351Z,96421.92
2024-02-23T17:42:26.470Z,96425.21
2024-02-23T17:44:53.726Z,96427.73
2024-02-23T17:47:20.738Z,96432.34
2024-02-23T17:49:49.619Z,96427.98
2024-02-23T17:52:17.496Z,96428.54
2024-02-23T17:54:45.031Z,96420.49
2024-02-23T17:57:12.041Z,96420.78
2024-02-23T17:59:40.031Z,96419.03
2024-02-23T18:02:08.080Z,96416.34
2024-02-23T18:04:35.433Z,96416.52
2024-02-23T18:07:02.697Z,96411.89
2024-02-23T18:09:29.945Z,96411.11
2024-02-23T18:11:57.243Z,96405.35
2024-02-23T18:14:24.473Z,96397.85
2024-02-23T18:16:51.535Z,96393.07
2024-02-23T18:19:19.326Z,96393.15
2024-02-23T18:21:46.470Z,96391.60
2024-02-23T18:24:13.670Z,96389.79
2024-02-23T18:26:42.592Z,96386.23
2024-02-23T18:29:11.124Z,96384.42
2024-02-23T18:31:38.632Z,96387.97
2024-02-23T18:34:06.180Z,96395.27
2024-02-23T18:36:33.700Z,96395.98
2024-02-23T18:39:00.997Z,96399.96
2024-02-23T18:41:28.241Z,96403.09
2024-02-23T18:43:55.689Z,96402.77
2024-02-23T18:46:23.018Z,96396.88
2024-02-23T18:48:50.178Z,96401.48
2024-02-23T18:51:20.981Z,96403.06
2024-02-23T18:53:50.261Z,96401.89
2024-02-23T18:56:17.434Z,96403.49
2024-02-23T18:58:44.688Z,96403.70
2024-02-23T19:01:14.095Z,96402.45
2024-02-23T19:03:41.969Z,96401.41
2024-02-23T19:06:10.447Z,96405.89
2024-02-23T19:08:37.696Z,96406.58
2024-02-23T19:11:08.588Z,96407.46
2024-02-23T19:13:36.120Z,96410.32
2024-02-23T19:16:03.209Z,96405.64
2024-02-23T19:18:30.400Z,96406.56
2024-02-23T19:20:57.619Z,96407.06
2024-02-23T19:23:24.776Z,96405.96
2024-02-23T19:25:51.991Z,96401.27
2024-02-23T19:28:19.058Z,96398.02
2024-02-23T19:30:48.085Z,96396.16
2024-02-23T19:33:15.660Z,96396.06
2024-02-23T19:35:42.867Z,96408.64
2024-02-23T19:38:10.327Z,96402.31
2024-02-23T19:40:37.570Z,96395.89
2024-02-23T19:43:05.040Z,96385.88
2024-02-23T19:45:32.172Z,96379.89
2024-02-23T19:47:59.480Z,96376.51
2024-02-23T19:50:26.767Z,96374.25
2024-02-23T19:52:53.993Z,96371.77
2024-02-23T19:55:21.176Z,96369.02
2024-02-23T19:57:48.814Z,96369.27
2024-02-23T20:00:16.150Z,96363.18
2024-02-23T20:02:43.617Z,96365.79
2024-02-23T20:05:10.989Z,96362.70
2024-02-23T20:07:38.408Z,96366.58
2024-02-23T20:10:07.506Z,96369.38
2024-02-23T20:12:34.902Z,96369.89
2024-02-23T20:15:04.590Z,96368.42
2024-02-23T20:17:37.947Z,96361.74
2024-02-23T20:20:50.171Z,96365.48
2024-02-23T20:23:41.998Z,96364.54
2024-02-23T20:27:08.795Z,96362.13
2024-02-23T20:30:16.491Z,96357.59
2024-02-23T20:33:04.294Z,96356.89
2024-02-23T20:36:11.140Z,96365.19
2024-02-23T20:39:11.232Z,96366.37
2024-02-23T20:42:44.800Z,96352.86
2024-02-23T20:46:14.107Z,96350.15
2024-02-23T20:50:02.039Z,96340.55
2024-02-23T20:53:52.809Z,96337.25
2024-02-23T20:57:40.757Z,96339.33
2024-02-23T21:01:28.584Z,96337.89
2024-02-23T21:05:17.015Z,96334.71
2024-02-23T21:09:04.319Z,96338.67
2024-02-23T21:12:52.121Z,96330.51
2024-02-23T21:16:39.763Z,96325.07
2024-02-23T21:20:27.175Z,96316.02
2024-02-23T21:24:16.481Z,96333.52
2024-02-23T21:27:43.638Z,96333.09
2024-02-23T21:31:30.399Z,96332.05
2024-02-23T21:34:57.232Z,96340.64
2024-02-23T21:38:26.456Z,96333.57
2024-02-23T21:42:15.789Z,96330.85
2024-02-23T21:45:47.879Z,96324.48
2024-02-23T21:49:14.670Z,96326.31
2024-02-23T21:52:43.464Z,96325.38
2024-02-23T21:56:30.224Z,96320.80
2024-02-23T21:59:22.241Z,96324.11
2024-02-23T22:02:49.094Z,96319.38
2024-02-23T22:05:40.248Z,96315.90
2024-02-23T22:09:08.372Z,96321.58
2024-02-23T22:12:55.510Z,96325.03
2024-02-23T22:16:42.921Z,96321.05
2024-02-23T22:20:23.402Z,96309.54
2024-02-23T22:23:52.187Z,96305.57
2024-02-23T22:26:20.164Z,96305.93
2024-02-23T22:29:47.216Z,96304.30
2024-02-23T22:32:28.997Z,96292.85
2024-02-23T22:34:59.156Z,96292.50
2024-02-23T22:37:37.547Z,96290.67
2024-02-23T22:40:06.847Z,96286.60
2024-02-23T22:42:41.176Z,96287.60
2024-02-23T22:45:11.274Z,96290.68
2024-02-23T22:47:41.533Z,96284.36
2024-02-23T22:50:09.353Z,96286.88
2024-02-23T22:52:38.421Z,96278.38
2024-02-23T22:55:25.683Z,96277.52
2024-02-23T22:57:53.533Z,96280.29
2024-02-23T23:00:22.561Z,96280.79
2024-02-23T23:03:30.635Z,96279.24
2024-02-23T23:05:57.799Z,96274.95
2024-02-23T23:09:13.547Z,96272.42
2024-02-23T23:12:40.942Z,96271.05
2024-02-23T23:15:49.852Z,96269.93
2024-02-23T23:19:07.546Z,96270.98
2024-02-23T23:22:19.686Z,96269.53
2024-02-23T23:25:12.143Z,96263.78
2024-02-23T23:27:42.569Z,96260.09
2024-02-23T23:30:19.686Z,96256.36
2024-02-23T23:33:06.226Z,96255.36
2024-02-23T23:35:54.372Z,96250.76
2024-02-23T23:39:24.851Z,96249.23
2024-02-23T23:43:12.657Z,96244.08
2024-02-23T23:47:01.683Z,96236.50
2024-02-23T23:50:50.185Z,96235.23
2024-02-23T23:58:22.514Z,96236.36
